09 Apr 2020 04:54 UTC 2020100+04:54 UTC

Overview Datums Bench Marks Data Query Site Visit Daily QC Messages Attributes

043: Nueces Delta 3

27° 53' 1" N   97° 31' 59" W
NUDE3
The Coastal Bend Bays & Estuaries Program Coastal Bend Bays and Estuaries Program

Station Information

Nueces Delta 3
Nueces Delta 3
more pictures
 
Station Name:Nueces Delta 3
DNR ID:043
Location:27° 53' 1" N, 97° 31' 59" W

Water Level Forecasts

Latest Observations

Series Metric English Marine Observed at
Water Temperature 27.6 °C 81.7 °F 81.7 °F Apr 08 23:48 CDT
00h06m ago
Salinity 33.900 psu 33.900 psu 33.900 psu Apr 08 23:48 CDT
00h06m ago

Maps

Nueces Delta 3
All Stations in Area
Entire Network
 

Recent Observations

Date/Time Water
Temp (°F)
Sal (psu)
Apr 08 23:00 CDT 82.2 34.100
Apr 08 22:00 CDT 83.1 33.500
Apr 08 21:00 CDT 83.5 32.900
Apr 08 20:00 CDT 83.8 32.800
Apr 08 19:00 CDT 84.4 32.900
Apr 08 18:00 CDT 84.7 33.300
Apr 08 17:00 CDT 84.7 33.900
Apr 08 16:00 CDT 83.5 34.200
Apr 08 15:00 CDT 81.9 33.700
Apr 08 14:00 CDT 81.0 33.800
Apr 08 13:00 CDT 79.7 34.000
Apr 08 12:00 CDT 78.1 18.400
Apr 08 11:00 CDT 77.4 18.300
Apr 08 10:00 CDT 76.8 18.300
Apr 08 09:00 CDT 77.0 18.100
Apr 08 08:00 CDT 76.6 18.300
Apr 08 07:00 CDT 77.0 18.600
Apr 08 06:00 CDT 77.0 18.800
Apr 08 05:00 CDT 77.2 18.500
Apr 08 04:00 CDT 77.4 18.400
Apr 08 03:00 CDT 77.5 18.000
Apr 08 02:00 CDT 78.1 18.000
Apr 08 01:00 CDT 78.4 18.000
Apr 08 00:00 CDT 79.0 18.100
Apr 07 23:00 CDT 79.2 18.100

Historical Data Availability